sensor_id;sensor_type;location;lat;lon;timestamp;temperature;humidity
37460;DHT22;23318;50.966;5.284;2022-11-02T00:00:52;13.70;99.90
37460;DHT22;23318;50.966;5.284;2022-11-02T00:03:18;13.70;99.90
37460;DHT22;23318;50.966;5.284;2022-11-02T00:05:44;13.80;99.90
37460;DHT22;23318;50.966;5.284;2022-11-02T00:08:09;13.70;99.90
37460;DHT22;23318;50.966;5.284;2022-11-02T00:10:35;13.70;99.90
37460;DHT22;23318;50.966;5.284;2022-11-02T00:13:01;13.70;99.90
37460;DHT22;23318;50.966;5.284;2022-11-02T00:15:29;13.70;99.90
37460;DHT22;23318;50.966;5.284;2022-11-02T00:17:59;13.70;99.90
37460;DHT22;23318;50.966;5.284;2022-11-02T00:20:26;13.80;99.90
37460;DHT22;23318;50.966;5.284;2022-11-02T00:22:55;13.80;99.90
37460;DHT22;23318;50.966;5.284;2022-11-02T00:25:23;13.80;99.90
37460;DHT22;23318;50.966;5.284;2022-11-02T00:27:49;13.90;99.90
37460;DHT22;23318;50.966;5.284;2022-11-02T00:30:15;14.00;99.90
37460;DHT22;23318;50.966;5.284;2022-11-02T00:32:41;14.10;99.90
37460;DHT22;23318;50.966;5.284;2022-11-02T00:35:07;14.10;99.90
37460;DHT22;23318;50.966;5.284;2022-11-02T00:37:33;14.20;99.90
37460;DHT22;23318;50.966;5.284;2022-11-02T00:39:58;14.20;99.90
37460;DHT22;23318;50.966;5.284;2022-11-02T00:42:24;14.20;99.90
37460;DHT22;23318;50.966;5.284;2022-11-02T00:44:50;14.20;99.90
37460;DHT22;23318;50.966;5.284;2022-11-02T00:47:15;14.10;99.90
37460;DHT22;23318;50.966;5.284;2022-11-02T00:49:41;14.20;99.90
37460;DHT22;23318;50.966;5.284;2022-11-02T00:52:07;14.20;99.90
37460;DHT22;23318;50.966;5.284;2022-11-02T00:54:32;14.20;99.90
37460;DHT22;23318;50.966;5.284;2022-11-02T00:56:58;14.10;99.90
37460;DHT22;23318;50.966;5.284;2022-11-02T00:59:24;14.00;99.90
37460;DHT22;23318;50.966;5.284;2022-11-02T01:01:49;13.90;99.90
37460;DHT22;23318;50.966;5.284;2022-11-02T01:04:16;13.90;99.90
37460;DHT22;23318;50.966;5.284;2022-11-02T01:06:42;13.80;99.90
37460;DHT22;23318;50.966;5.284;2022-11-02T01:09:09;13.60;99.90
37460;DHT22;23318;50.966;5.284;2022-11-02T01:11:35;13.60;99.90
37460;DHT22;23318;50.966;5.284;2022-11-02T01:14:00;13.50;99.90
37460;DHT22;23318;50.966;5.284;2022-11-02T01:16:26;13.50;99.90
37460;DHT22;23318;50.966;5.284;2022-11-02T01:18:54;13.40;99.90
37460;DHT22;23318;50.966;5.284;2022-11-02T01:21:20;13.50;99.90
37460;DHT22;23318;50.966;5.284;2022-11-02T01:23:46;13.60;99.90
37460;DHT22;23318;50.966;5.284;2022-11-02T01:26:12;13.70;99.90
37460;DHT22;23318;50.966;5.284;2022-11-02T01:28:38;13.60;99.90
37460;DHT22;23318;50.966;5.284;2022-11-02T01:31:05;13.50;99.90
37460;DHT22;23318;50.966;5.284;2022-11-02T01:33:31;13.50;99.90
37460;DHT22;23318;50.966;5.284;2022-11-02T01:35:57;13.50;99.90
37460;DHT22;23318;50.966;5.284;2022-11-02T01:38:24;13.30;99.90
37460;DHT22;23318;50.966;5.284;2022-11-02T01:40:50;13.30;99.90
37460;DHT22;23318;50.966;5.284;2022-11-02T01:43:23;13.30;99.90
37460;DHT22;23318;50.966;5.284;2022-11-02T01:45:59;13.30;99.90
37460;DHT22;23318;50.966;5.284;2022-11-02T01:48:30;13.30;99.90
37460;DHT22;23318;50.966;5.284;2022-11-02T01:50:58;13.30;99.90
37460;DHT22;23318;50.966;5.284;2022-11-02T01:53:25;13.30;99.90
37460;DHT22;23318;50.966;5.284;2022-11-02T01:55:51;13.40;99.90
37460;DHT22;23318;50.966;5.284;2022-11-02T01:58:17;13.40;99.90
37460;DHT22;23318;50.966;5.284;2022-11-02T02:00:43;13.40;99.90
37460;DHT22;23318;50.966;5.284;2022-11-02T02:03:11;13.50;99.90
37460;DHT22;23318;50.966;5.284;2022-11-02T02:05:43;13.40;99.90
37460;DHT22;23318;50.966;5.284;2022-11-02T02:08:11;13.50;99.90
37460;DHT22;23318;50.966;5.284;2022-11-02T02:10:37;13.50;99.90
37460;DHT22;23318;50.966;5.284;2022-11-02T02:13:04;13.40;99.90
37460;DHT22;23318;50.966;5.284;2022-11-02T02:16:01;13.50;99.90
37460;DHT22;23318;50.966;5.284;2022-11-02T02:29:21;13.20;99.90
37460;DHT22;23318;50.966;5.284;2022-11-02T02:32:04;13.20;99.90
37460;DHT22;23318;50.966;5.284;2022-11-02T02:34:56;13.20;99.90
37460;DHT22;23318;50.966;5.284;2022-11-02T02:37:40;13.20;99.90
37460;DHT22;23318;50.966;5.284;2022-11-02T02:40:18;13.10;99.90
37460;DHT22;23318;50.966;5.284;2022-11-02T02:43:03;13.10;99.90
37460;DHT22;23318;50.966;5.284;2022-11-02T02:45:34;13.00;99.90
37460;DHT22;23318;50.966;5.284;2022-11-02T02:48:09;12.90;99.90
37460;DHT22;23318;50.966;5.284;2022-11-02T02:51:18;12.90;99.90
37460;DHT22;23318;50.966;5.284;2022-11-02T02:53:39;13.00;99.90
37460;DHT22;23318;50.966;5.284;2022-11-02T02:56:06;12.90;99.90
37460;DHT22;23318;50.966;5.284;2022-11-02T02:58:42;12.80;99.90
37460;DHT22;23318;50.966;5.284;2022-11-02T03:01:12;12.80;99.90
37460;DHT22;23318;50.966;5.284;2022-11-02T03:03:40;12.80;99.90
37460;DHT22;23318;50.966;5.284;2022-11-02T03:06:27;12.70;99.90
37460;DHT22;23318;50.966;5.284;2022-11-02T03:26:12;12.60;99.90
37460;DHT22;23318;50.966;5.284;2022-11-02T03:34:10;12.50;99.90
37460;DHT22;23318;50.966;5.284;2022-11-02T03:39:19;12.50;99.90
37460;DHT22;23318;50.966;5.284;2022-11-02T03:41:47;12.50;99.90
37460;DHT22;23318;50.966;5.284;2022-11-02T03:44:18;12.50;99.90
37460;DHT22;23318;50.966;5.284;2022-11-02T03:46:46;12.50;99.90
37460;DHT22;23318;50.966;5.284;2022-11-02T03:49:17;12.40;99.90
37460;DHT22;23318;50.966;5.284;2022-11-02T03:51:45;12.40;99.90
37460;DHT22;23318;50.966;5.284;2022-11-02T03:54:21;12.50;99.90
37460;DHT22;23318;50.966;5.284;2022-11-02T03:56:50;12.40;99.90
37460;DHT22;23318;50.966;5.284;2022-11-02T03:59:17;12.50;99.90
37460;DHT22;23318;50.966;5.284;2022-11-02T04:01:45;12.50;99.90
37460;DHT22;23318;50.966;5.284;2022-11-02T04:04:11;12.60;99.90
37460;DHT22;23318;50.966;5.284;2022-11-02T04:06:38;12.50;99.90
37460;DHT22;23318;50.966;5.284;2022-11-02T04:09:04;12.60;99.90
37460;DHT22;23318;50.966;5.284;2022-11-02T04:11:30;12.60;99.90
37460;DHT22;23318;50.966;5.284;2022-11-02T04:14:15;12.60;99.90
37460;DHT22;23318;50.966;5.284;2022-11-02T04:16:59;12.60;99.90
37460;DHT22;23318;50.966;5.284;2022-11-02T04:19:43;12.50;99.90
37460;DHT22;23318;50.966;5.284;2022-11-02T04:22:08;12.40;99.90
37460;DHT22;23318;50.966;5.284;2022-11-02T04:24:52;12.50;99.90
37460;DHT22;23318;50.966;5.284;2022-11-02T04:27:36;12.40;99.90
37460;DHT22;23318;50.966;5.284;2022-11-02T04:30:02;12.40;99.90
37460;DHT22;23318;50.966;5.284;2022-11-02T04:32:28;12.50;99.90
37460;DHT22;23318;50.966;5.284;2022-11-02T04:35:12;12.50;99.90
37460;DHT22;23318;50.966;5.284;2022-11-02T04:37:41;12.50;99.90
37460;DHT22;23318;50.966;5.284;2022-11-02T04:40:26;12.60;99.90
37460;DHT22;23318;50.966;5.284;2022-11-02T04:42:52;12.50;99.90
37460;DHT22;23318;50.966;5.284;2022-11-02T04:45:18;12.40;99.90
37460;DHT22;23318;50.966;5.284;2022-11-02T04:47:44;12.40;99.90
37460;DHT22;23318;50.966;5.284;2022-11-02T04:50:09;12.40;99.90
37460;DHT22;23318;50.966;5.284;2022-11-02T04:52:36;12.30;99.90
37460;DHT22;23318;50.966;5.284;2022-11-02T04:55:01;12.30;99.90
37460;DHT22;23318;50.966;5.284;2022-11-02T04:57:27;12.30;99.90
37460;DHT22;23318;50.966;5.284;2022-11-02T04:59:55;12.30;99.90
37460;DHT22;23318;50.966;5.284;2022-11-02T05:02:21;12.30;99.90
37460;DHT22;23318;50.966;5.284;2022-11-02T05:04:46;12.30;99.90
37460;DHT22;23318;50.966;5.284;2022-11-02T05:07:12;12.30;99.90
37460;DHT22;23318;50.966;5.284;2022-11-02T05:09:38;12.30;99.90
37460;DHT22;23318;50.966;5.284;2022-11-02T05:12:04;12.20;99.90
37460;DHT22;23318;50.966;5.284;2022-11-02T05:14:30;12.20;99.90
37460;DHT22;23318;50.966;5.284;2022-11-02T05:16:57;12.20;99.90
37460;DHT22;23318;50.966;5.284;2022-11-02T05:19:22;12.20;99.90
37460;DHT22;23318;50.966;5.284;2022-11-02T05:21:48;12.20;99.90
37460;DHT22;23318;50.966;5.284;2022-11-02T05:24:14;12.10;99.90
37460;DHT22;23318;50.966;5.284;2022-11-02T05:26:40;12.20;99.90
37460;DHT22;23318;50.966;5.284;2022-11-02T05:29:06;12.20;99.90
37460;DHT22;23318;50.966;5.284;2022-11-02T05:31:32;12.20;99.90
37460;DHT22;23318;50.966;5.284;2022-11-02T05:33:58;12.10;99.90
37460;DHT22;23318;50.966;5.284;2022-11-02T05:36:23;12.10;99.90
37460;DHT22;23318;50.966;5.284;2022-11-02T05:38:53;12.10;99.90
37460;DHT22;23318;50.966;5.284;2022-11-02T05:41:19;12.10;99.90
37460;DHT22;23318;50.966;5.284;2022-11-02T05:43:45;12.20;99.90
37460;DHT22;23318;50.966;5.284;2022-11-02T05:46:11;12.10;99.90
37460;DHT22;23318;50.966;5.284;2022-11-02T05:48:40;12.10;99.90
37460;DHT22;23318;50.966;5.284;2022-11-02T05:51:06;12.10;99.90
37460;DHT22;23318;50.966;5.284;2022-11-02T05:53:33;12.00;99.90
37460;DHT22;23318;50.966;5.284;2022-11-02T05:56:04;11.90;99.90
37460;DHT22;23318;50.966;5.284;2022-11-02T05:58:31;11.90;99.90
37460;DHT22;23318;50.966;5.284;2022-11-02T06:01:01;11.90;99.90
37460;DHT22;23318;50.966;5.284;2022-11-02T06:03:28;11.80;99.90
37460;DHT22;23318;50.966;5.284;2022-11-02T06:06:08;11.80;99.90
37460;DHT22;23318;50.966;5.284;2022-11-02T06:08:35;11.70;99.90
37460;DHT22;23318;50.966;5.284;2022-11-02T06:13:30;11.70;99.90
37460;DHT22;23318;50.966;5.284;2022-11-02T06:15:59;11.60;99.90
37460;DHT22;23318;50.966;5.284;2022-11-02T06:18:25;11.60;99.90
37460;DHT22;23318;50.966;5.284;2022-11-02T06:20:51;11.60;99.90
37460;DHT22;23318;50.966;5.284;2022-11-02T06:23:17;11.60;99.90
37460;DHT22;23318;50.966;5.284;2022-11-02T06:25:49;11.50;99.90
37460;DHT22;23318;50.966;5.284;2022-11-02T06:28:14;11.50;99.90
37460;DHT22;23318;50.966;5.284;2022-11-02T06:30:41;11.50;99.90
37460;DHT22;23318;50.966;5.284;2022-11-02T06:33:07;11.50;99.90
37460;DHT22;23318;50.966;5.284;2022-11-02T06:35:33;11.60;99.90
37460;DHT22;23318;50.966;5.284;2022-11-02T06:37:58;11.60;99.90
37460;DHT22;23318;50.966;5.284;2022-11-02T06:40:24;11.70;99.90
37460;DHT22;23318;50.966;5.284;2022-11-02T06:42:54;11.70;99.90
37460;DHT22;23318;50.966;5.284;2022-11-02T06:45:20;11.60;99.90
37460;DHT22;23318;50.966;5.284;2022-11-02T06:47:47;11.60;99.90
37460;DHT22;23318;50.966;5.284;2022-11-02T06:50:13;11.60;99.90
37460;DHT22;23318;50.966;5.284;2022-11-02T06:52:43;11.50;99.90
37460;DHT22;23318;50.966;5.284;2022-11-02T06:55:11;11.50;99.90
37460;DHT22;23318;50.966;5.284;2022-11-02T06:57:37;11.60;99.90
37460;DHT22;23318;50.966;5.284;2022-11-02T07:00:04;11.60;99.90
37460;DHT22;23318;50.966;5.284;2022-11-02T07:02:30;11.60;99.90
37460;DHT22;23318;50.966;5.284;2022-11-02T07:04:56;11.50;99.90
37460;DHT22;23318;50.966;5.284;2022-11-02T07:07:22;11.50;99.90
37460;DHT22;23318;50.966;5.284;2022-11-02T07:09:48;11.50;99.90
37460;DHT22;23318;50.966;5.284;2022-11-02T07:12:13;11.50;99.90
37460;DHT22;23318;50.966;5.284;2022-11-02T07:14:39;11.50;99.90
37460;DHT22;23318;50.966;5.284;2022-11-02T07:17:05;11.50;99.90
37460;DHT22;23318;50.966;5.284;2022-11-02T07:19:30;11.60;99.90
37460;DHT22;23318;50.966;5.284;2022-11-02T07:21:56;11.60;99.90
37460;DHT22;23318;50.966;5.284;2022-11-02T07:24:21;11.60;99.90
37460;DHT22;23318;50.966;5.284;2022-11-02T07:26:48;11.60;99.90
37460;DHT22;23318;50.966;5.284;2022-11-02T07:29:17;11.60;99.90
37460;DHT22;23318;50.966;5.284;2022-11-02T07:31:44;11.70;99.90
37460;DHT22;23318;50.966;5.284;2022-11-02T07:34:10;11.60;99.90
37460;DHT22;23318;50.966;5.284;2022-11-02T07:36:36;11.60;99.90
37460;DHT22;23318;50.966;5.284;2022-11-02T07:39:01;11.60;99.90
37460;DHT22;23318;50.966;5.284;2022-11-02T07:41:27;11.60;99.90
37460;DHT22;23318;50.966;5.284;2022-11-02T07:43:52;11.60;99.90
37460;DHT22;23318;50.966;5.284;2022-11-02T07:46:18;11.50;99.90
37460;DHT22;23318;50.966;5.284;2022-11-02T07:48:45;11.60;99.90
37460;DHT22;23318;50.966;5.284;2022-11-02T07:51:10;11.60;99.90
37460;DHT22;23318;50.966;5.284;2022-11-02T07:53:36;11.60;99.90
37460;DHT22;23318;50.966;5.284;2022-11-02T07:56:04;11.70;99.90
37460;DHT22;23318;50.966;5.284;2022-11-02T07:58:30;11.80;99.90
37460;DHT22;23318;50.966;5.284;2022-11-02T08:01:00;11.70;99.90
37460;DHT22;23318;50.966;5.284;2022-11-02T08:03:27;11.70;99.90
37460;DHT22;23318;50.966;5.284;2022-11-02T08:05:52;11.70;99.90
37460;DHT22;23318;50.966;5.284;2022-11-02T08:08:20;11.70;99.90
37460;DHT22;23318;50.966;5.284;2022-11-02T08:10:49;11.80;99.90
37460;DHT22;23318;50.966;5.284;2022-11-02T08:13:17;11.80;99.90
37460;DHT22;23318;50.966;5.284;2022-11-02T08:15:43;11.80;99.90
37460;DHT22;23318;50.966;5.284;2022-11-02T08:18:14;11.90;99.90
37460;DHT22;23318;50.966;5.284;2022-11-02T08:20:40;11.90;99.90
37460;DHT22;23318;50.966;5.284;2022-11-02T08:23:08;12.00;99.90
37460;DHT22;23318;50.966;5.284;2022-11-02T08:25:34;11.90;99.90
37460;DHT22;23318;50.966;5.284;2022-11-02T08:28:00;12.00;99.90
37460;DHT22;23318;50.966;5.284;2022-11-02T08:30:27;12.10;99.90
37460;DHT22;23318;50.966;5.284;2022-11-02T08:32:53;12.10;99.90
37460;DHT22;23318;50.966;5.284;2022-11-02T08:35:19;12.10;99.90
37460;DHT22;23318;50.966;5.284;2022-11-02T08:37:53;12.10;99.90
37460;DHT22;23318;50.966;5.284;2022-11-02T08:40:19;12.20;99.90
37460;DHT22;23318;50.966;5.284;2022-11-02T08:42:45;12.20;99.90
37460;DHT22;23318;50.966;5.284;2022-11-02T08:45:10;12.30;99.90
37460;DHT22;23318;50.966;5.284;2022-11-02T08:47:40;12.40;99.90
37460;DHT22;23318;50.966;5.284;2022-11-02T08:50:09;12.30;99.90
37460;DHT22;23318;50.966;5.284;2022-11-02T08:52:38;12.30;99.90
37460;DHT22;23318;50.966;5.284;2022-11-02T08:55:04;12.40;99.90
37460;DHT22;23318;50.966;5.284;2022-11-02T08:57:30;12.40;99.90
37460;DHT22;23318;50.966;5.284;2022-11-02T08:59:56;12.40;99.90
37460;DHT22;23318;50.966;5.284;2022-11-02T09:02:21;12.60;99.90
37460;DHT22;23318;50.966;5.284;2022-11-02T09:04:47;12.70;99.90
37460;DHT22;23318;50.966;5.284;2022-11-02T09:07:13;12.70;99.90
37460;DHT22;23318;50.966;5.284;2022-11-02T09:09:38;12.80;99.90
37460;DHT22;23318;50.966;5.284;2022-11-02T09:12:04;12.80;99.90
37460;DHT22;23318;50.966;5.284;2022-11-02T09:14:30;12.90;99.90
37460;DHT22;23318;50.966;5.284;2022-11-02T09:16:56;12.80;99.90
37460;DHT22;23318;50.966;5.284;2022-11-02T09:19:21;12.70;99.90
37460;DHT22;23318;50.966;5.284;2022-11-02T09:21:47;12.60;99.90
37460;DHT22;23318;50.966;5.284;2022-11-02T09:24:15;12.70;99.90
37460;DHT22;23318;50.966;5.284;2022-11-02T09:26:41;12.80;99.90
37460;DHT22;23318;50.966;5.284;2022-11-02T09:29:06;12.90;99.90
37460;DHT22;23318;50.966;5.284;2022-11-02T09:31:32;12.90;99.90
37460;DHT22;23318;50.966;5.284;2022-11-02T09:33:58;13.00;99.90
37460;DHT22;23318;50.966;5.284;2022-11-02T09:36:23;13.00;99.90
37460;DHT22;23318;50.966;5.284;2022-11-02T09:38:49;13.10;99.90
37460;DHT22;23318;50.966;5.284;2022-11-02T09:41:25;13.20;99.90
37460;DHT22;23318;50.966;5.284;2022-11-02T09:44:11;13.00;99.90
37460;DHT22;23318;50.966;5.284;2022-11-02T09:46:40;12.90;99.90
37460;DHT22;23318;50.966;5.284;2022-11-02T09:49:22;13.20;99.90
37460;DHT22;23318;50.966;5.284;2022-11-02T09:51:55;13.40;99.90
37460;DHT22;23318;50.966;5.284;2022-11-02T09:57:01;13.30;99.90
37460;DHT22;23318;50.966;5.284;2022-11-02T09:59:28;13.40;99.90
37460;DHT22;23318;50.966;5.284;2022-11-02T10:10:22;15.30;99.90
37460;DHT22;23318;50.966;5.284;2022-11-02T10:15:42;15.20;99.90
37460;DHT22;23318;50.966;5.284;2022-11-02T10:18:17;15.20;99.90
37460;DHT22;23318;50.966;5.284;2022-11-02T10:20:45;14.80;99.90
37460;DHT22;23318;50.966;5.284;2022-11-02T10:23:29;15.10;99.90
37460;DHT22;23318;50.966;5.284;2022-11-02T10:25:57;15.20;99.90
37460;DHT22;23318;50.966;5.284;2022-11-02T10:28:29;15.90;99.90
37460;DHT22;23318;50.966;5.284;2022-11-02T10:30:56;16.10;99.90
37460;DHT22;23318;50.966;5.284;2022-11-02T10:33:25;16.10;99.90
37460;DHT22;23318;50.966;5.284;2022-11-02T10:38:54;16.20;99.90
37460;DHT22;23318;50.966;5.284;2022-11-02T10:44:48;16.20;99.90
37460;DHT22;23318;50.966;5.284;2022-11-02T10:47:16;16.10;99.90
37460;DHT22;23318;50.966;5.284;2022-11-02T10:52:15;17.20;99.90
37460;DHT22;23318;50.966;5.284;2022-11-02T10:54:41;17.10;99.90
37460;DHT22;23318;50.966;5.284;2022-11-02T10:57:11;17.30;99.90
37460;DHT22;23318;50.966;5.284;2022-11-02T10:59:37;17.80;99.90
37460;DHT22;23318;50.966;5.284;2022-11-02T11:02:04;17.00;99.90
37460;DHT22;23318;50.966;5.284;2022-11-02T11:04:35;15.40;99.90
37460;DHT22;23318;50.966;5.284;2022-11-02T11:07:06;15.00;99.90
37460;DHT22;23318;50.966;5.284;2022-11-02T11:12:17;15.20;99.90
37460;DHT22;23318;50.966;5.284;2022-11-02T11:15:01;15.40;99.90
37460;DHT22;23318;50.966;5.284;2022-11-02T11:19:55;16.90;99.90
37460;DHT22;23318;50.966;5.284;2022-11-02T11:25:24;16.70;99.90
37460;DHT22;23318;50.966;5.284;2022-11-02T11:30:29;17.20;99.90
37460;DHT22;23318;50.966;5.284;2022-11-02T11:32:56;16.90;99.90
37460;DHT22;23318;50.966;5.284;2022-11-02T11:35:24;15.90;99.90
37460;DHT22;23318;50.966;5.284;2022-11-02T11:37:56;15.90;99.90
37460;DHT22;23318;50.966;5.284;2022-11-02T11:40:23;16.40;99.90
37460;DHT22;23318;50.966;5.284;2022-11-02T11:42:52;16.50;99.90
37460;DHT22;23318;50.966;5.284;2022-11-02T11:45:24;17.30;99.90
37460;DHT22;23318;50.966;5.284;2022-11-02T11:47:58;17.90;99.90
37460;DHT22;23318;50.966;5.284;2022-11-02T11:50:26;17.00;99.90
37460;DHT22;23318;50.966;5.284;2022-11-02T11:53:20;16.80;99.90
37460;DHT22;23318;50.966;5.284;2022-11-02T11:55:50;17.10;99.90
37460;DHT22;23318;50.966;5.284;2022-11-02T11:58:23;16.80;99.90
37460;DHT22;23318;50.966;5.284;2022-11-02T12:12:52;17.40;99.90
37460;DHT22;23318;50.966;5.284;2022-11-02T12:18:27;19.10;99.60
37460;DHT22;23318;50.966;5.284;2022-11-02T12:21:30;18.40;99.90
37460;DHT22;23318;50.966;5.284;2022-11-02T12:33:03;18.80;99.80
37460;DHT22;23318;50.966;5.284;2022-11-02T12:43:40;20.70;96.90
37460;DHT22;23318;50.966;5.284;2022-11-02T12:46:20;20.20;96.70
37460;DHT22;23318;50.966;5.284;2022-11-02T12:51:46;18.60;98.80
37460;DHT22;23318;50.966;5.284;2022-11-02T12:54:30;18.80;98.50
37460;DHT22;23318;50.966;5.284;2022-11-02T12:56:58;18.90;99.10
37460;DHT22;23318;50.966;5.284;2022-11-02T12:59:27;19.30;98.10
37460;DHT22;23318;50.966;5.284;2022-11-02T13:02:11;19.10;97.80
37460;DHT22;23318;50.966;5.284;2022-11-02T13:07:24;18.20;98.80
37460;DHT22;23318;50.966;5.284;2022-11-02T13:10:21;18.70;98.60
37460;DHT22;23318;50.966;5.284;2022-11-02T13:12:53;19.10;97.90
37460;DHT22;23318;50.966;5.284;2022-11-02T13:15:22;18.70;97.10
37460;DHT22;23318;50.966;5.284;2022-11-02T13:18:00;18.80;97.20
37460;DHT22;23318;50.966;5.284;2022-11-02T13:20:38;19.50;97.20
37460;DHT22;23318;50.966;5.284;2022-11-02T13:23:14;19.20;97.60
37460;DHT22;23318;50.966;5.284;2022-11-02T13:25:46;19.10;97.60
37460;DHT22;23318;50.966;5.284;2022-11-02T13:28:45;19.60;97.30
37460;DHT22;23318;50.966;5.284;2022-11-02T13:31:36;19.90;96.40
37460;DHT22;23318;50.966;5.284;2022-11-02T13:34:04;18.90;97.30
37460;DHT22;23318;50.966;5.284;2022-11-02T13:36:36;18.20;97.20
37460;DHT22;23318;50.966;5.284;2022-11-02T13:39:26;18.30;97.50
37460;DHT22;23318;50.966;5.284;2022-11-02T13:49:57;19.00;97.20
37460;DHT22;23318;50.966;5.284;2022-11-02T13:52:40;18.70;96.50
37460;DHT22;23318;50.966;5.284;2022-11-02T13:55:20;18.40;96.50
37460;DHT22;23318;50.966;5.284;2022-11-02T13:57:52;18.10;97.00
37460;DHT22;23318;50.966;5.284;2022-11-02T14:03:01;18.30;97.10
37460;DHT22;23318;50.966;5.284;2022-11-02T14:05:33;18.10;97.10
37460;DHT22;23318;50.966;5.284;2022-11-02T14:08:05;17.20;98.10
37460;DHT22;23318;50.966;5.284;2022-11-02T14:10:39;16.60;99.00
37460;DHT22;23318;50.966;5.284;2022-11-02T14:13:12;16.00;99.90
37460;DHT22;23318;50.966;5.284;2022-11-02T14:15:40;16.60;99.20
37460;DHT22;23318;50.966;5.284;2022-11-02T14:18:11;17.30;97.90
37460;DHT22;23318;50.966;5.284;2022-11-02T14:20:43;17.40;97.40
37460;DHT22;23318;50.966;5.284;2022-11-02T14:36:41;19.30;96.00
37460;DHT22;23318;50.966;5.284;2022-11-02T14:39:38;20.10;95.40
37460;DHT22;23318;50.966;5.284;2022-11-02T14:42:18;20.30;94.90
37460;DHT22;23318;50.966;5.284;2022-11-02T14:45:15;19.60;94.80
37460;DHT22;23318;50.966;5.284;2022-11-02T14:47:46;19.10;95.00
37460;DHT22;23318;50.966;5.284;2022-11-02T14:50:16;19.30;94.80
37460;DHT22;23318;50.966;5.284;2022-11-02T14:55:32;19.00;95.00
37460;DHT22;23318;50.966;5.284;2022-11-02T14:58:17;18.20;95.20
37460;DHT22;23318;50.966;5.284;2022-11-02T15:03:35;17.00;96.50
37460;DHT22;23318;50.966;5.284;2022-11-02T15:06:21;17.00;96.80
37460;DHT22;23318;50.966;5.284;2022-11-02T15:08:56;17.30;96.50
37460;DHT22;23318;50.966;5.284;2022-11-02T15:11:56;17.00;96.90
37460;DHT22;23318;50.966;5.284;2022-11-02T15:14:53;17.40;96.80
37460;DHT22;23318;50.966;5.284;2022-11-02T15:19:42;16.70;97.50
37460;DHT22;23318;50.966;5.284;2022-11-02T15:25:24;18.00;96.90
37460;DHT22;23318;50.966;5.284;2022-11-02T15:27:53;17.90;96.70
37460;DHT22;23318;50.966;5.284;2022-11-02T15:30:21;17.60;97.10
37460;DHT22;23318;50.966;5.284;2022-11-02T15:32:59;17.80;97.20
37460;DHT22;23318;50.966;5.284;2022-11-02T15:35:29;18.10;97.10
37460;DHT22;23318;50.966;5.284;2022-11-02T15:38:02;18.10;97.00
37460;DHT22;23318;50.966;5.284;2022-11-02T15:40:34;17.40;97.30
37460;DHT22;23318;50.966;5.284;2022-11-02T15:51:45;16.90;98.30
37460;DHT22;23318;50.966;5.284;2022-11-02T15:59:48;16.10;99.90
37460;DHT22;23318;50.966;5.284;2022-11-02T16:02:40;16.10;99.90
37460;DHT22;23318;50.966;5.284;2022-11-02T16:05:19;15.80;99.90
37460;DHT22;23318;50.966;5.284;2022-11-02T16:07:47;15.50;99.90
37460;DHT22;23318;50.966;5.284;2022-11-02T16:10:27;14.80;99.90
37460;DHT22;23318;50.966;5.284;2022-11-02T16:13:00;14.40;99.90
37460;DHT22;23318;50.966;5.284;2022-11-02T16:15:26;14.20;99.90
37460;DHT22;23318;50.966;5.284;2022-11-02T16:17:52;14.20;99.90
37460;DHT22;23318;50.966;5.284;2022-11-02T16:23:00;14.20;99.90
37460;DHT22;23318;50.966;5.284;2022-11-02T16:25:33;14.40;99.90
37460;DHT22;23318;50.966;5.284;2022-11-02T16:30:41;14.40;99.90
37460;DHT22;23318;50.966;5.284;2022-11-02T16:33:08;14.30;99.90
37460;DHT22;23318;50.966;5.284;2022-11-02T16:35:35;14.30;99.90
37460;DHT22;23318;50.966;5.284;2022-11-02T16:38:02;14.20;99.90
37460;DHT22;23318;50.966;5.284;2022-11-02T16:40:28;14.00;99.90
37460;DHT22;23318;50.966;5.284;2022-11-02T16:42:54;13.80;99.90
37460;DHT22;23318;50.966;5.284;2022-11-02T16:47:55;13.60;99.90
37460;DHT22;23318;50.966;5.284;2022-11-02T16:50:22;13.80;99.90
37460;DHT22;23318;50.966;5.284;2022-11-02T16:52:56;13.70;99.90
37460;DHT22;23318;50.966;5.284;2022-11-02T16:55:42;13.70;99.90
37460;DHT22;23318;50.966;5.284;2022-11-02T16:58:21;13.60;99.90
37460;DHT22;23318;50.966;5.284;2022-11-02T17:01:16;13.70;99.90
37460;DHT22;23318;50.966;5.284;2022-11-02T17:03:43;13.60;99.90
37460;DHT22;23318;50.966;5.284;2022-11-02T17:06:08;13.50;99.90
37460;DHT22;23318;50.966;5.284;2022-11-02T17:08:36;13.50;99.90
37460;DHT22;23318;50.966;5.284;2022-11-02T17:11:04;13.40;99.90
37460;DHT22;23318;50.966;5.284;2022-11-02T17:13:34;13.30;99.90
37460;DHT22;23318;50.966;5.284;2022-11-02T17:16:08;13.20;99.90
37460;DHT22;23318;50.966;5.284;2022-11-02T17:18:34;13.20;99.90
37460;DHT22;23318;50.966;5.284;2022-11-02T17:23:40;13.00;99.90
37460;DHT22;23318;50.966;5.284;2022-11-02T17:31:21;12.90;99.90
37460;DHT22;23318;50.966;5.284;2022-11-02T17:33:48;12.60;99.90
37460;DHT22;23318;50.966;5.284;2022-11-02T17:36:14;12.70;99.90
37460;DHT22;23318;50.966;5.284;2022-11-02T17:38:41;12.90;99.90
37460;DHT22;23318;50.966;5.284;2022-11-02T17:41:19;12.80;99.90
37460;DHT22;23318;50.966;5.284;2022-11-02T17:44:04;12.80;99.90
37460;DHT22;23318;50.966;5.284;2022-11-02T17:46:34;12.80;99.90
37460;DHT22;23318;50.966;5.284;2022-11-02T17:48:59;12.70;99.90
37460;DHT22;23318;50.966;5.284;2022-11-02T17:51:25;12.70;99.90
37460;DHT22;23318;50.966;5.284;2022-11-02T17:53:51;12.70;99.90
37460;DHT22;23318;50.966;5.284;2022-11-02T17:56:16;12.60;99.90
37460;DHT22;23318;50.966;5.284;2022-11-02T17:58:42;12.50;99.90
37460;DHT22;23318;50.966;5.284;2022-11-02T18:01:11;12.20;99.90
37460;DHT22;23318;50.966;5.284;2022-11-02T18:03:36;12.20;99.90
37460;DHT22;23318;50.966;5.284;2022-11-02T18:06:02;12.40;99.90
37460;DHT22;23318;50.966;5.284;2022-11-02T18:08:28;12.60;99.90
37460;DHT22;23318;50.966;5.284;2022-11-02T18:10:54;12.60;99.90
37460;DHT22;23318;50.966;5.284;2022-11-02T18:13:22;12.60;99.90
37460;DHT22;23318;50.966;5.284;2022-11-02T18:15:48;12.30;99.90
37460;DHT22;23318;50.966;5.284;2022-11-02T18:18:14;12.40;99.90
37460;DHT22;23318;50.966;5.284;2022-11-02T18:20:40;12.40;99.90
37460;DHT22;23318;50.966;5.284;2022-11-02T18:23:06;12.60;99.90
37460;DHT22;23318;50.966;5.284;2022-11-02T18:25:32;12.70;99.90
37460;DHT22;23318;50.966;5.284;2022-11-02T18:27:59;12.80;99.90
37460;DHT22;23318;50.966;5.284;2022-11-02T18:30:26;12.60;99.90
37460;DHT22;23318;50.966;5.284;2022-11-02T18:32:53;12.40;99.90
37460;DHT22;23318;50.966;5.284;2022-11-02T18:35:21;12.50;99.90
37460;DHT22;23318;50.966;5.284;2022-11-02T18:37:47;12.60;99.90
37460;DHT22;23318;50.966;5.284;2022-11-02T18:40:14;12.50;99.90
37460;DHT22;23318;50.966;5.284;2022-11-02T18:42:42;12.60;99.90